Time;durP1;ratioP1;P1;durP2;ratioP2;P2;SDS_P1;SDS_P2;PMS_P1;PMS_P2;Temp;Humidity;BMP_temperature;BMP_pressure;BME280_temperature;BME280_humidity;BME280_pressure;Samples;Min_cycle;Max_cycle;Signal;HPM_P1;HPM_P2
2021/12/31 00:01:07;;;;;;;0.10;0.10;;;9.60;99.90;;;;;;4993883;28;20102;-80
2021/12/31 00:03:32;;;;;;;0.00;0.00;;;9.50;99.90;;;;;;4993908;28;20030;-80
2021/12/31 00:05:58;;;;;;;0.35;0.35;;;9.40;99.90;;;;;;4991640;28;20062;-78
2021/12/31 00:08:24;;;;;;;0.00;0.00;;;9.30;99.90;;;;;;4992474;28;20386;-78
2021/12/31 00:10:54;;;;;;;0.45;0.45;;;9.30;99.90;;;;;;4992872;28;20096;-80
2021/12/31 00:13:20;;;;;;;0.30;0.30;;;9.20;99.90;;;;;;4998736;28;20041;-80
2021/12/31 00:15:46;;;;;;;0.17;0.17;;;9.10;99.90;;;;;;5016354;28;20086;-78
2021/12/31 00:18:11;;;;;;;0.00;0.00;;;9.00;99.90;;;;;;5014824;28;20029;-80
2021/12/31 00:20:39;;;;;;;0.57;0.55;;;8.90;99.90;;;;;;5016236;28;20030;-79
2021/12/31 00:23:07;;;;;;;0.35;0.30;;;8.90;99.90;;;;;;5015130;28;20034;-78
2021/12/31 00:25:36;;;;;;;0.00;0.00;;;8.80;99.90;;;;;;4993390;28;20157;-78
2021/12/31 00:28:01;;;;;;;0.00;0.00;;;8.80;99.90;;;;;;5012332;28;20124;-80
2021/12/31 00:30:28;;;;;;;0.65;0.17;;;8.70;99.90;;;;;;5009570;28;20129;-80
2021/12/31 00:32:53;;;;;;;0.28;0.28;;;8.70;99.90;;;;;;5012381;28;20037;-80
2021/12/31 00:35:19;;;;;;;0.52;0.30;;;8.60;99.90;;;;;;5012039;28;20026;-78
2021/12/31 00:37:45;;;;;;;0.00;0.00;;;8.60;99.90;;;;;;5012406;28;20079;-78
2021/12/31 00:40:14;;;;;;;0.00;0.00;;;8.60;99.90;;;;;;5012104;28;20061;-80
2021/12/31 00:42:40;;;;;;;0.00;0.00;;;8.50;99.90;;;;;;5012484;28;20025;-80
2021/12/31 00:45:08;;;;;;;0.10;0.10;;;8.60;99.90;;;;;;5012300;28;20040;-80
2021/12/31 00:47:34;;;;;;;0.85;0.65;;;8.70;99.90;;;;;;5012095;28;20026;-78
2021/12/31 00:49:59;;;;;;;0.00;0.00;;;8.90;99.90;;;;;;5011473;28;20033;-78
2021/12/31 00:52:25;;;;;;;0.00;0.00;;;8.90;99.90;;;;;;5014805;28;20038;-80
2021/12/31 00:54:51;;;;;;;0.00;0.00;;;9.10;99.90;;;;;;5015691;28;20030;-80
2021/12/31 00:57:16;;;;;;;0.15;0.15;;;9.20;99.90;;;;;;5015924;28;20277;-80
2021/12/31 00:59:42;;;;;;;0.05;0.05;;;9.20;99.90;;;;;;5015873;28;20492;-80
2021/12/31 01:02:10;;;;;;;0.10;0.10;;;9.30;99.90;;;;;;5015680;28;20560;-80
2021/12/31 01:04:36;;;;;;;0.75;0.22;;;9.30;99.90;;;;;;5015659;28;20018;-78
2021/12/31 01:07:02;;;;;;;0.00;0.00;;;9.30;99.90;;;;;;5015465;28;20030;-80
2021/12/31 01:09:29;;;;;;;1.25;0.57;;;9.30;99.90;;;;;;5015272;28;20396;-80
2021/12/31 01:11:56;;;;;;;0.60;0.57;;;9.30;99.90;;;;;;5012829;28;20060;-78
2021/12/31 01:14:37;;;;;;;0.20;0.20;;;9.30;99.90;;;;;;5015392;28;20033;-80
2021/12/31 01:17:08;;;;;;;0.45;0.45;;;9.40;99.90;;;;;;5015280;28;20485;-80
2021/12/31 01:19:45;;;;;;;0.00;0.00;;;9.40;99.90;;;;;;5014108;28;20385;-80
2021/12/31 01:22:29;;;;;;;1.77;0.52;;;9.40;99.90;;;;;;5014776;28;20067;-80
2021/12/31 01:24:55;;;;;;;1.10;0.43;;;9.30;99.90;;;;;;5015359;28;20161;-80
2021/12/31 01:27:21;;;;;;;0.10;0.10;;;9.30;99.90;;;;;;5015197;28;20561;-78
2021/12/31 01:29:47;;;;;;;0.20;0.20;;;9.30;99.90;;;;;;5015205;28;20104;-77
2021/12/31 01:32:13;;;;;;;0.00;0.00;;;9.20;99.90;;;;;;5013604;28;20362;-80
2021/12/31 01:34:39;;;;;;;0.00;0.00;;;9.20;99.90;;;;;;5015072;28;20490;-80
2021/12/31 01:37:06;;;;;;;0.00;0.00;;;9.20;99.90;;;;;;5014808;28;20100;-80
2021/12/31 01:39:31;;;;;;;0.00;0.00;;;9.10;99.90;;;;;;5015049;28;20076;-78
2021/12/31 01:41:59;;;;;;;0.00;0.00;;;9.10;99.90;;;;;;5015005;28;20129;-78
2021/12/31 01:44:36;;;;;;;0.10;0.10;;;9.00;99.90;;;;;;5015055;28;20026;-80
2021/12/31 01:47:08;;;;;;;0.00;0.00;;;8.90;99.90;;;;;;5013387;28;20026;-78
2021/12/31 01:49:37;;;;;;;2.28;0.70;;;8.80;99.90;;;;;;5014580;28;20022;-80
2021/12/31 01:52:04;;;;;;;0.10;0.10;;;8.80;99.90;;;;;;5014288;28;20024;-80
2021/12/31 01:54:31;;;;;;;0.32;0.32;;;8.70;99.90;;;;;;5014580;28;20022;-78
2021/12/31 01:57:00;;;;;;;0.00;0.00;;;8.60;99.90;;;;;;4997467;28;20034;-77
2021/12/31 01:59:26;;;;;;;0.10;0.10;;;8.60;99.90;;;;;;4995177;28;20030;-80
2021/12/31 02:01:52;;;;;;;0.00;0.00;;;8.50;99.90;;;;;;4995056;28;20030;-80
2021/12/31 02:04:18;;;;;;;0.43;0.43;;;8.50;99.90;;;;;;4992910;28;20441;-80
2021/12/31 02:06:44;;;;;;;0.00;0.00;;;8.50;99.90;;;;;;4993785;28;20026;-80
2021/12/31 02:09:09;;;;;;;0.03;0.03;;;8.40;99.90;;;;;;5026361;28;20026;-80
2021/12/31 02:11:35;;;;;;;0.22;0.22;;;8.50;99.90;;;;;;4995421;28;20033;-80
2021/12/31 02:14:03;;;;;;;0.00;0.00;;;8.50;99.90;;;;;;4994688;28;20462;-78
2021/12/31 02:16:31;;;;;;;0.15;0.15;;;8.60;99.90;;;;;;4994664;28;20034;-78
2021/12/31 02:19:10;;;;;;;0.00;0.00;;;8.60;99.90;;;;;;4994384;28;20018;-78
2021/12/31 02:21:36;;;;;;;2.05;0.10;;;8.70;99.90;;;;;;4994042;28;20030;-78
2021/12/31 02:24:06;;;;;;;0.00;0.00;;;8.70;99.90;;;;;;4994248;28;20482;-80
2021/12/31 02:26:31;;;;;;;0.00;0.00;;;8.70;99.90;;;;;;5004126;28;20026;-80
2021/12/31 02:28:57;;;;;;;0.00;0.00;;;8.70;99.90;;;;;;5014058;28;20544;-80
2021/12/31 02:31:23;;;;;;;0.10;0.10;;;8.70;99.90;;;;;;5011869;28;20026;-78
2021/12/31 02:33:50;;;;;;;0.00;0.00;;;8.80;99.90;;;;;;5013856;28;20084;-78
2021/12/31 02:36:16;;;;;;;0.38;0.38;;;8.80;99.90;;;;;;5013553;28;20083;-77
2021/12/31 02:38:43;;;;;;;4.03;1.20;;;8.70;99.90;;;;;;5012517;28;20112;-80
2021/12/31 02:41:09;;;;;;;0.00;0.00;;;8.70;99.90;;;;;;5013820;28;20032;-80
2021/12/31 02:43:35;;;;;;;0.47;0.47;;;8.60;99.90;;;;;;5011812;28;20065;-78
2021/12/31 02:46:01;;;;;;;0.00;0.00;;;8.50;99.90;;;;;;5013029;28;20029;-78
2021/12/31 02:48:27;;;;;;;0.73;0.32;;;8.50;99.90;;;;;;5013412;28;20026;-78
2021/12/31 02:50:57;;;;;;;2.80;0.80;;;8.50;99.90;;;;;;5012930;28;20033;-80
2021/12/31 02:53:38;;;;;;;0.20;0.20;;;8.70;99.90;;;;;;5013318;28;20100;-80
2021/12/31 02:56:10;;;;;;;0.00;0.00;;;8.80;99.90;;;;;;5008763;28;20489;-77
2021/12/31 02:58:37;;;;;;;14.82;0.47;;;8.90;99.90;;;;;;4994133;28;20019;-77
2021/12/31 03:01:05;;;;;;;0.28;0.28;;;8.90;99.90;;;;;;4993993;28;20102;-77
2021/12/31 03:03:33;;;;;;;0.00;0.00;;;9.00;99.90;;;;;;4993809;28;20034;-80
2021/12/31 03:05:59;;;;;;;0.08;0.08;;;9.00;99.90;;;;;;4993621;28;20042;-80
2021/12/31 03:08:29;;;;;;;0.00;0.00;;;8.90;99.90;;;;;;4993773;28;20034;-80
2021/12/31 03:10:56;;;;;;;0.00;0.00;;;8.90;99.90;;;;;;4993465;28;20109;-78
2021/12/31 03:13:23;;;;;;;0.47;0.17;;;8.90;99.90;;;;;;4993793;28;20497;-78
2021/12/31 03:15:52;;;;;;;0.00;0.00;;;8.90;99.90;;;;;;4993605;28;20038;-80
2021/12/31 03:18:19;;;;;;;0.00;0.00;;;8.90;99.90;;;;;;4993271;28;20382;-77
2021/12/31 03:21:08;;;;;;;1.27;0.17;;;8.90;99.90;;;;;;4993387;28;20034;-80
2021/12/31 03:23:33;;;;;;;0.25;0.25;;;8.90;99.90;;;;;;4993500;28;20084;-80
2021/12/31 03:26:00;;;;;;;3.42;0.30;;;8.80;99.90;;;;;;4998793;28;20038;-80
2021/12/31 03:28:26;;;;;;;0.00;0.00;;;8.90;99.90;;;;;;5013094;28;20425;-78
2021/12/31 03:30:52;;;;;;;0.00;0.00;;;8.80;99.90;;;;;;5013073;28;20034;-80
2021/12/31 03:33:18;;;;;;;5.15;1.55;;;8.80;99.90;;;;;;5004923;28;20101;-80
2021/12/31 03:35:44;;;;;;;0.10;0.10;;;8.80;99.90;;;;;;4993148;28;20080;-80
2021/12/31 03:38:11;;;;;;;0.13;0.13;;;8.80;99.90;;;;;;4993339;28;20026;-77
2021/12/31 03:40:37;;;;;;;0.08;0.08;;;8.80;99.90;;;;;;4993322;28;20502;-80
2021/12/31 03:43:03;;;;;;;0.00;0.00;;;8.90;99.90;;;;;;4993354;28;20422;-80
2021/12/31 03:45:29;;;;;;;0.00;0.00;;;8.80;99.90;;;;;;4993474;28;20037;-80
2021/12/31 03:47:55;;;;;;;0.00;0.00;;;8.80;99.90;;;;;;5001742;28;20516;-80
2021/12/31 03:50:21;;;;;;;0.08;0.08;;;8.70;99.90;;;;;;5012100;28;20037;-77
2021/12/31 03:52:46;;;;;;;0.00;0.00;;;8.60;99.90;;;;;;5011241;28;20030;-77
2021/12/31 03:55:12;;;;;;;0.43;0.43;;;8.60;99.90;;;;;;5012610;28;20030;-80
2021/12/31 03:57:39;;;;;;;0.00;0.00;;;8.60;99.90;;;;;;5012983;28;20045;-80
2021/12/31 04:00:06;;;;;;;0.00;0.00;;;8.50;99.90;;;;;;5012265;28;20026;-80
2021/12/31 04:02:32;;;;;;;0.55;0.55;;;8.50;99.90;;;;;;5012350;28;20501;-78
2021/12/31 04:04:58;;;;;;;0.00;0.00;;;8.60;99.90;;;;;;5012450;28;20068;-80
2021/12/31 04:07:23;;;;;;;0.00;0.00;;;8.60;99.90;;;;;;5012699;28;20493;-80
2021/12/31 04:09:49;;;;;;;0.00;0.00;;;8.60;99.90;;;;;;5011156;28;20033;-80
2021/12/31 04:12:15;;;;;;;0.10;0.10;;;8.60;99.90;;;;;;5011003;28;20104;-80
2021/12/31 04:14:41;;;;;;;0.00;0.00;;;8.50;99.90;;;;;;5012202;28;20559;-80
2021/12/31 04:17:07;;;;;;;0.00;0.00;;;8.50;99.90;;;;;;5012047;28;20061;-80
2021/12/31 04:19:32;;;;;;;0.15;0.15;;;8.40;99.90;;;;;;5011144;28;20026;-80
2021/12/31 04:21:58;;;;;;;0.00;0.00;;;8.40;99.90;;;;;;5012113;28;20030;-80
2021/12/31 04:27:08;;;;;;;0.75;0.47;;;8.40;99.90;;;;;;5015295;28;20041;-78
2021/12/31 04:29:34;;;;;;;0.00;0.00;;;8.50;99.90;;;;;;5016495;28;20034;-78
2021/12/31 04:32:03;;;;;;;0.00;0.00;;;8.50;99.90;;;;;;5015193;28;20492;-77
2021/12/31 04:34:29;;;;;;;0.00;0.00;;;8.60;99.90;;;;;;5011136;28;20089;-80
2021/12/31 04:36:55;;;;;;;0.00;0.00;;;8.60;99.90;;;;;;4996919;28;20026;-80
2021/12/31 04:39:21;;;;;;;0.00;0.00;;;8.50;99.90;;;;;;4996677;28;20026;-77
2021/12/31 04:41:47;;;;;;;0.00;0.00;;;8.50;99.90;;;;;;4996573;28;20473;-78
2021/12/31 04:44:13;;;;;;;0.05;0.05;;;8.40;99.90;;;;;;4996486;28;20038;-77
2021/12/31 04:46:38;;;;;;;0.08;0.08;;;8.30;99.90;;;;;;4996474;28;20022;-80
2021/12/31 04:49:06;;;;;;;0.00;0.00;;;8.20;99.90;;;;;;5045559;28;20501;-80
2021/12/31 04:51:32;;;;;;;0.55;0.40;;;8.20;99.90;;;;;;5015574;28;20026;-80
2021/12/31 04:53:58;;;;;;;0.90;0.65;;;8.20;99.90;;;;;;5015718;28;20117;-80
2021/12/31 04:56:23;;;;;;;0.00;0.00;;;8.20;99.90;;;;;;5015722;28;20101;-77
2021/12/31 04:58:49;;;;;;;0.20;0.20;;;8.20;99.90;;;;;;5015358;28;20808;-77
2021/12/31 05:01:16;;;;;;;0.00;0.00;;;8.10;99.90;;;;;;5015105;28;20026;-77
2021/12/31 05:03:42;;;;;;;0.08;0.08;;;8.10;99.90;;;;;;5015690;28;20018;-80
2021/12/31 05:06:08;;;;;;;0.25;0.25;;;8.00;99.90;;;;;;5015339;28;20033;-80
2021/12/31 05:08:34;;;;;;;0.00;0.00;;;8.00;99.90;;;;;;5015635;28;20033;-77
2021/12/31 05:11:00;;;;;;;0.00;0.00;;;8.00;99.90;;;;;;5015263;28;20036;-77
2021/12/31 05:13:25;;;;;;;0.00;0.00;;;8.00;99.90;;;;;;5015606;28;20021;-80
2021/12/31 05:15:53;;;;;;;0.38;0.38;;;8.00;99.90;;;;;;5015299;28;20083;-77
2021/12/31 05:18:18;;;;;;;0.00;0.00;;;8.00;99.90;;;;;;5015159;28;20022;-80
2021/12/31 05:20:44;;;;;;;0.10;0.10;;;8.00;99.90;;;;;;5014269;28;20153;-77
2021/12/31 05:23:10;;;;;;;0.00;0.00;;;8.00;99.90;;;;;;5015329;28;20389;-77
2021/12/31 05:25:35;;;;;;;0.00;0.00;;;8.00;99.90;;;;;;5014032;28;20123;-80
2021/12/31 05:28:01;;;;;;;0.00;0.00;;;8.00;99.90;;;;;;5015142;28;20054;-80
2021/12/31 05:30:27;;;;;;;0.88;0.63;;;8.00;99.90;;;;;;5015303;28;20544;-77
2021/12/31 05:32:53;;;;;;;0.00;0.00;;;8.00;99.90;;;;;;5011615;28;20029;-80
2021/12/31 05:35:19;;;;;;;0.00;0.00;;;8.00;99.90;;;;;;5013455;28;20056;-77
2021/12/31 05:37:45;;;;;;;0.00;0.00;;;8.00;99.90;;;;;;5013842;28;20103;-77
2021/12/31 05:40:11;;;;;;;1.27;0.85;;;8.00;99.90;;;;;;5014904;28;20128;-80
2021/12/31 05:42:37;;;;;;;0.32;0.32;;;8.00;99.90;;;;;;5014790;28;20041;-80
2021/12/31 05:45:04;;;;;;;0.38;0.20;;;7.90;99.90;;;;;;5014884;28;20477;-80
2021/12/31 05:47:29;;;;;;;0.10;0.10;;;7.80;99.90;;;;;;5014613;28;20020;-77
2021/12/31 05:49:55;;;;;;;0.00;0.00;;;7.80;99.90;;;;;;5014269;28;20030;-80
2021/12/31 05:52:21;;;;;;;2.28;0.22;;;7.80;99.90;;;;;;5013223;28;20122;-80
2021/12/31 05:54:47;;;;;;;0.00;0.00;;;7.80;99.90;;;;;;5014752;28;20028;-80
2021/12/31 05:57:13;;;;;;;0.00;0.00;;;7.80;99.90;;;;;;5014542;28;20022;-80
2021/12/31 05:59:39;;;;;;;0.13;0.13;;;7.80;99.90;;;;;;5014309;28;20032;-80
2021/12/31 06:02:04;;;;;;;0.00;0.00;;;7.90;99.90;;;;;;5013685;28;20478;-77
2021/12/31 06:04:30;;;;;;;0.00;0.00;;;8.00;99.90;;;;;;5012577;28;20452;-80
2021/12/31 06:06:56;;;;;;;0.45;0.38;;;8.00;99.90;;;;;;5014411;28;20033;-80
2021/12/31 06:09:21;;;;;;;0.17;0.17;;;7.90;99.90;;;;;;5014039;28;20472;-79
2021/12/31 06:11:47;;;;;;;0.00;0.00;;;7.80;99.90;;;;;;5014341;28;20060;-80
2021/12/31 06:14:13;;;;;;;0.00;0.00;;;7.70;99.90;;;;;;5014090;28;20021;-77
2021/12/31 06:16:45;;;;;;;0.00;0.00;;;7.80;99.90;;;;;;5014205;28;20485;-77
2021/12/31 06:19:12;;;;;;;0.32;0.32;;;7.70;99.90;;;;;;5012807;28;20405;-77
2021/12/31 06:21:39;;;;;;;0.00;0.00;;;7.70;99.90;;;;;;5013858;28;20034;-80
2021/12/31 06:24:06;;;;;;;0.10;0.10;;;7.70;99.90;;;;;;5014069;28;20139;-80
2021/12/31 06:26:32;;;;;;;0.00;0.00;;;7.80;99.90;;;;;;5013848;28;20030;-77
2021/12/31 06:28:58;;;;;;;0.10;0.10;;;7.80;99.90;;;;;;5012554;28;20052;-77
2021/12/31 06:31:24;;;;;;;0.20;0.20;;;7.70;99.90;;;;;;5013945;28;20424;-80
2021/12/31 06:33:49;;;;;;;0.00;0.00;;;7.90;99.90;;;;;;5012070;28;20408;-80
2021/12/31 06:36:16;;;;;;;0.32;0.25;;;7.90;99.90;;;;;;5013482;28;20026;-80
2021/12/31 06:38:43;;;;;;;0.00;0.00;;;7.90;99.90;;;;;;5014017;28;20029;-77
2021/12/31 06:41:09;;;;;;;0.00;0.00;;;7.90;99.90;;;;;;5013645;28;20063;-77
2021/12/31 06:43:35;;;;;;;0.00;0.00;;;7.90;99.90;;;;;;5013989;28;20054;-80
2021/12/31 06:46:00;;;;;;;0.75;0.75;;;7.80;99.90;;;;;;5013749;28;20493;-80
2021/12/31 06:48:26;;;;;;;0.00;0.00;;;7.70;99.90;;;;;;5011218;28;20040;-80
2021/12/31 06:50:52;;;;;;;0.35;0.30;;;7.70;99.90;;;;;;5012931;28;20113;-77
2021/12/31 06:53:20;;;;;;;3.92;0.30;;;7.70;99.90;;;;;;5013144;28;20038;-77
2021/12/31 06:55:46;;;;;;;1.08;0.65;;;7.80;99.90;;;;;;5013330;28;20489;-80
2021/12/31 06:58:11;;;;;;;0.17;0.17;;;7.80;99.90;;;;;;5013497;28;20084;-80
2021/12/31 07:00:37;;;;;;;0.00;0.00;;;7.80;99.90;;;;;;5013551;28;20088;-80
2021/12/31 07:03:08;;;;;;;0.00;0.00;;;7.80;99.90;;;;;;5013310;28;20100;-80
2021/12/31 07:05:34;;;;;;;2.50;0.88;;;7.80;99.90;;;;;;5013059;28;20029;-80
2021/12/31 07:08:00;;;;;;;0.00;0.00;;;7.70;99.90;;;;;;5013463;28;20034;-77
2021/12/31 07:10:27;;;;;;;0.00;0.00;;;7.70;99.90;;;;;;5011471;28;20025;-80
2021/12/31 07:13:01;;;;;;;0.03;0.03;;;7.70;99.90;;;;;;5011919;28;20444;-80
2021/12/31 07:15:27;;;;;;;0.00;0.00;;;7.70;99.90;;;;;;5013372;28;20105;-80
2021/12/31 07:17:53;;;;;;;0.00;0.00;;;7.80;99.90;;;;;;5012966;28;20026;-77
2021/12/31 07:20:20;;;;;;;0.00;0.00;;;7.80;99.90;;;;;;5012628;28;20080;-77
2021/12/31 07:22:46;;;;;;;1.65;1.23;;;7.80;99.90;;;;;;5012350;28;20037;-80
2021/12/31 07:25:12;;;;;;;0.10;0.10;;;7.70;99.90;;;;;;5012387;28;20030;-80
2021/12/31 07:27:37;;;;;;;0.00;0.00;;;7.60;99.90;;;;;;5013111;28;20065;-80
2021/12/31 07:30:05;;;;;;;3.92;0.28;;;7.50;99.90;;;;;;5012893;28;20033;-79
2021/12/31 07:32:38;;;;;;;0.00;0.00;;;7.50;99.90;;;;;;5012399;28;20061;-76
2021/12/31 07:35:05;;;;;;;0.00;0.00;;;7.50;99.90;;;;;;4995487;28;20417;-78
2021/12/31 07:37:30;;;;;;;0.15;0.15;;;7.50;99.90;;;;;;4993378;28;20023;-78
2021/12/31 07:40:02;;;;;;;0.00;0.00;;;7.50;99.90;;;;;;4993134;28;20153;-78
2021/12/31 07:42:28;;;;;;;0.38;0.38;;;7.40;99.90;;;;;;4993281;28;20498;-78
2021/12/31 07:44:53;;;;;;;0.00;0.00;;;7.30;99.90;;;;;;4993364;28;20100;-78
2021/12/31 07:47:19;;;;;;;0.00;0.00;;;7.40;99.90;;;;;;4996744;28;20144;-77
2021/12/31 07:49:45;;;;;;;0.08;0.08;;;7.40;99.90;;;;;;5010490;28;20113;-78
2021/12/31 07:52:10;;;;;;;0.10;0.10;;;7.50;99.90;;;;;;5011686;28;20034;-78
2021/12/31 07:54:36;;;;;;;0.00;0.00;;;7.50;99.90;;;;;;5011195;28;20032;-78
2021/12/31 07:57:02;;;;;;;0.47;0.10;;;7.40;99.90;;;;;;5010680;28;20029;-77
2021/12/31 07:59:27;;;;;;;0.00;0.00;;;7.40;99.90;;;;;;5012462;28;20034;-77
2021/12/31 08:01:53;;;;;;;0.38;0.13;;;7.40;99.90;;;;;;5011877;28;20028;-78
2021/12/31 08:04:19;;;;;;;1.02;0.75;;;7.30;99.90;;;;;;5012054;28;20030;-78
2021/12/31 08:06:44;;;;;;;0.00;0.00;;;7.30;99.90;;;;;;5010958;28;20112;-77
2021/12/31 08:09:10;;;;;;;0.00;0.00;;;7.30;99.90;;;;;;5012153;28;20057;-78
2021/12/31 08:11:37;;;;;;;0.00;0.00;;;7.40;99.90;;;;;;5012555;28;20041;-77
2021/12/31 08:14:03;;;;;;;1.25;0.68;;;7.40;99.90;;;;;;5012424;28;20083;-78
2021/12/31 08:16:29;;;;;;;0.05;0.05;;;7.40;99.90;;;;;;5012192;28;20022;-78
2021/12/31 08:18:55;;;;;;;0.25;0.15;;;7.40;99.90;;;;;;5010743;28;20037;-78
2021/12/31 08:21:21;;;;;;;0.03;0.03;;;7.50;99.90;;;;;;5012093;28;20567;-78
2021/12/31 08:23:46;;;;;;;0.10;0.10;;;7.40;99.90;;;;;;5012236;28;20495;-77
2021/12/31 08:26:12;;;;;;;0.17;0.15;;;7.50;99.90;;;;;;5012048;28;20022;-77
2021/12/31 08:28:38;;;;;;;0.00;0.00;;;7.50;99.90;;;;;;5012124;28;20089;-78
2021/12/31 08:31:03;;;;;;;0.30;0.30;;;7.50;99.90;;;;;;5010827;28;20026;-78
2021/12/31 08:33:29;;;;;;;0.57;0.43;;;7.50;99.90;;;;;;5010932;28;20044;-77
2021/12/31 08:35:55;;;;;;;0.00;0.00;;;7.50;99.90;;;;;;5010816;28;20018;-78
2021/12/31 08:38:22;;;;;;;0.25;0.25;;;7.60;99.90;;;;;;5011372;28;20401;-79
2021/12/31 08:40:47;;;;;;;0.00;0.00;;;7.60;99.90;;;;;;5010783;28;20084;-79
2021/12/31 08:43:13;;;;;;;0.00;0.00;;;7.70;99.90;;;;;;5015204;28;20030;-78
2021/12/31 08:45:39;;;;;;;0.20;0.20;;;7.80;99.90;;;;;;5020246;28;20127;-78
2021/12/31 08:48:05;;;;;;;0.20;0.20;;;7.80;99.90;;;;;;5021482;28;20026;-79
2021/12/31 08:50:32;;;;;;;0.08;0.08;;;7.90;99.90;;;;;;5015651;28;20029;-77
2021/12/31 08:52:57;;;;;;;0.00;0.00;;;8.00;99.90;;;;;;5017650;28;20101;-79
2021/12/31 08:55:24;;;;;;;0.17;0.17;;;8.00;99.90;;;;;;5022965;28;20045;-79
2021/12/31 08:57:50;;;;;;;0.00;0.00;;;8.00;99.90;;;;;;5023763;28;20079;-79
2021/12/31 09:00:16;;;;;;;0.03;0.03;;;8.10;99.90;;;;;;5022463;28;20046;-79
2021/12/31 09:02:45;;;;;;;0.17;0.17;;;8.10;99.90;;;;;;5017457;28;20022;-77
2021/12/31 09:05:11;;;;;;;1.98;0.22;;;8.20;99.90;;;;;;5010861;28;20014;-77
2021/12/31 09:07:37;;;;;;;0.20;0.20;;;8.20;99.90;;;;;;5011827;28;20037;-77
2021/12/31 09:10:04;;;;;;;1.13;0.10;;;8.30;99.90;;;;;;5011374;28;20025;-79
2021/12/31 09:12:30;;;;;;;0.00;0.00;;;8.40;99.90;;;;;;5011788;28;20485;-79
2021/12/31 09:14:56;;;;;;;0.10;0.10;;;8.40;99.90;;;;;;5015192;28;20018;-77
2021/12/31 09:17:25;;;;;;;0.38;0.38;;;8.40;99.90;;;;;;5014927;28;20392;-77
2021/12/31 09:19:51;;;;;;;0.00;0.00;;;8.50;99.90;;;;;;5014443;28;20022;-78
2021/12/31 09:22:17;;;;;;;0.28;0.05;;;8.40;99.90;;;;;;5014667;28;20129;-79
2021/12/31 09:24:43;;;;;;;0.10;0.10;;;8.50;99.90;;;;;;5015108;28;20026;-79
2021/12/31 09:27:08;;;;;;;0.13;0.13;;;8.50;99.90;;;;;;5013584;28;20049;-79
2021/12/31 09:29:34;;;;;;;0.00;0.00;;;8.60;99.90;;;;;;5014181;28;20112;-77
2021/12/31 09:32:00;;;;;;;0.20;0.20;;;8.70;99.90;;;;;;5014833;28;20030;-79
2021/12/31 09:34:26;;;;;;;0.10;0.10;;;8.70;99.90;;;;;;5012837;28;20037;-79
2021/12/31 09:36:52;;;;;;;0.10;0.10;;;8.80;99.90;;;;;;5014484;28;20061;-79
2021/12/31 09:39:17;;;;;;;0.80;0.47;;;8.90;99.90;;;;;;5014697;28;20409;-79
2021/12/31 09:41:44;;;;;;;0.10;0.10;;;9.00;99.90;;;;;;5014335;28;20502;-78
2021/12/31 09:44:14;;;;;;;0.45;0.45;;;9.10;99.90;;;;;;5013702;28;20029;-78
2021/12/31 09:46:40;;;;;;;6.55;0.30;;;9.30;99.90;;;;;;5014693;28;20401;-79
2021/12/31 09:49:06;;;;;;;0.00;0.00;;;9.40;99.90;;;;;;5013820;28;20022;-79
2021/12/31 09:51:32;;;;;;;0.20;0.20;;;9.40;99.90;;;;;;5013771;28;20033;-79
2021/12/31 09:53:59;;;;;;;0.10;0.10;;;9.60;99.90;;;;;;5014203;28;20109;-78
2021/12/31 09:56:26;;;;;;;0.43;0.43;;;9.70;99.90;;;;;;5014334;28;20073;-78
2021/12/31 09:58:52;;;;;;;3.80;0.60;;;9.70;99.90;;;;;;5014579;28;20022;-79
2021/12/31 10:01:18;;;;;;;0.08;0.08;;;9.90;99.90;;;;;;5014413;28;20044;-80
2021/12/31 10:03:57;;;;;;;1.02;0.52;;;10.00;99.90;;;;;;5014449;28;20396;-80
2021/12/31 10:06:24;;;;;;;0.03;0.03;;;10.00;99.90;;;;;;5013875;28;20076;-78
2021/12/31 10:08:50;;;;;;;1.98;0.93;;;10.10;99.90;;;;;;5014122;28;20028;-79
2021/12/31 10:11:21;;;;;;;0.65;0.65;;;10.10;99.90;;;;;;5012101;28;20510;-79
2021/12/31 10:14:00;;;;;;;0.00;0.00;;;10.20;99.90;;;;;;5014495;28;20112;-80
2021/12/31 10:16:31;;;;;;;1.83;1.02;;;10.40;99.90;;;;;;5013801;28;20038;-79
2021/12/31 10:19:10;;;;;;;0.00;0.00;;;10.40;99.90;;;;;;5013863;28;20018;-80
2021/12/31 10:21:46;;;;;;;2.83;1.35;;;10.60;99.90;;;;;;5013589;28;20171;-79
2021/12/31 10:24:32;;;;;;;0.20;0.20;;;10.70;99.90;;;;;;5013324;28;20026;-79
2021/12/31 10:27:02;;;;;;;0.10;0.10;;;10.80;99.90;;;;;;5011981;28;20062;-79
2021/12/31 10:29:28;;;;;;;0.98;0.95;;;11.00;99.90;;;;;;5013860;28;20127;-81
2021/12/31 10:31:54;;;;;;;0.00;0.00;;;11.10;99.90;;;;;;5012538;28;20065;-81
2021/12/31 10:34:26;;;;;;;0.47;0.40;;;11.30;99.90;;;;;;5011281;28;20036;-76
2021/12/31 10:36:52;;;;;;;0.10;0.10;;;11.40;99.90;;;;;;4992512;28;20030;-79
2021/12/31 10:39:31;;;;;;;0.32;0.32;;;11.60;99.90;;;;;;4993967;28;20541;-78
2021/12/31 10:42:07;;;;;;;0.13;0.13;;;11.60;99.90;;;;;;4994764;28;20019;-84
2021/12/31 10:44:51;;;;;;;0.10;0.10;;;11.70;99.90;;;;;;4994293;28;20022;-82
2021/12/31 10:47:21;;;;;;;0.00;0.00;;;11.80;99.90;;;;;;4997333;28;20508;-77
2021/12/31 10:50:02;;;;;;;1.45;0.20;;;12.00;99.90;;;;;;5012962;28;20117;-82
2021/12/31 10:52:37;;;;;;;0.30;0.30;;;12.10;99.90;;;;;;5013162;28;20200;-81
2021/12/31 10:55:17;;;;;;;0.25;0.25;;;12.20;99.90;;;;;;5013440;28;20029;-83
2021/12/31 10:57:45;;;;;;;0.40;0.28;;;12.30;99.90;;;;;;5013867;28;20018;-84
2021/12/31 11:00:11;;;;;;;0.00;0.00;;;12.50;99.90;;;;;;5013429;28;20033;-80
2021/12/31 11:02:38;;;;;;;0.00;0.00;;;12.60;99.90;;;;;;5013214;28;20116;-82
2021/12/31 11:05:05;;;;;;;1.23;0.93;;;12.80;99.90;;;;;;5011593;28;20030;-81
2021/12/31 11:07:31;;;;;;;0.65;0.40;;;12.90;99.90;;;;;;5013254;28;20046;-75
2021/12/31 11:09:58;;;;;;;0.40;0.40;;;13.00;99.90;;;;;;5012749;28;20029;-81
2021/12/31 11:12:26;;;;;;;9.23;0.52;;;13.20;99.90;;;;;;5012989;28;20501;-75
2021/12/31 11:14:53;;;;;;;1.10;1.00;;;13.30;99.90;;;;;;5012978;28;20378;-75
2021/12/31 11:17:19;;;;;;;11.75;1.40;;;13.40;99.90;;;;;;5012468;28;20477;-82
2021/12/31 11:19:48;;;;;;;0.75;0.52;;;13.50;99.90;;;;;;5013007;28;20036;-83
2021/12/31 11:22:14;;;;;;;0.50;0.50;;;13.50;99.90;;;;;;5012786;28;20021;-84
2021/12/31 11:24:40;;;;;;;19.92;1.85;;;13.60;99.90;;;;;;5012850;28;20026;-76
2021/12/31 11:27:44;;;;;;;0.10;0.10;;;13.70;99.90;;;;;;5012637;28;20044;-76
2021/12/31 11:30:35;;;;;;;0.13;0.13;;;13.80;99.90;;;;;;4991582;28;20093;-83
2021/12/31 11:33:08;;;;;;;2.42;1.58;;;13.90;99.90;;;;;;5012446;28;20033;-83
2021/12/31 11:35:37;;;;;;;0.20;0.20;;;13.90;99.90;;;;;;4999123;28;20022;-83
2021/12/31 11:38:06;;;;;;;0.00;0.00;;;13.90;99.90;;;;;;4992631;28;20026;-83
2021/12/31 11:40:49;;;;;;;1.20;0.65;;;14.00;99.90;;;;;;4991687;28;20030;-76
2021/12/31 11:43:25;;;;;;;5.15;1.60;;;14.20;99.90;;;;;;4993199;28;20018;-83
2021/12/31 11:46:29;;;;;;;1.55;0.82;;;14.30;99.90;;;;;;5008141;28;20037;-84
2021/12/31 11:48:56;;;;;;;0.00;0.00;;;14.50;99.90;;;;;;5009127;28;20040;-76
2021/12/31 11:51:36;;;;;;;0.30;0.30;;;14.60;99.90;;;;;;5011910;28;20026;-76
2021/12/31 11:54:04;;;;;;;0.65;0.65;;;14.70;99.90;;;;;;5011769;28;20033;-76
2021/12/31 11:56:47;;;;;;;0.95;0.28;;;14.90;99.90;;;;;;5012057;28;20054;-84
2021/12/31 11:59:13;;;;;;;1.23;0.68;;;15.10;99.90;;;;;;5012549;28;20053;-85
2021/12/31 12:02:02;;;;;;;0.82;0.80;;;15.20;99.90;;;;;;5012627;28;20022;-84
2021/12/31 12:04:33;;;;;;;1.35;0.57;;;15.30;99.90;;;;;;5012042;28;20049;-76
2021/12/31 12:07:32;;;;;;;0.32;0.30;;;15.30;99.90;;;;;;5011740;28;20037;-76
2021/12/31 12:09:57;;;;;;;0.55;0.55;;;15.50;99.90;;;;;;5012413;28;20080;-84
2021/12/31 12:12:28;;;;;;;0.10;0.10;;;15.40;99.90;;;;;;5010965;28;20026;-84
2021/12/31 12:14:58;;;;;;;1.02;0.25;;;15.60;99.90;;;;;;5012385;28;20500;-84
2021/12/31 12:17:29;;;;;;;1.00;0.80;;;15.60;99.90;;;;;;5012146;28;20033;-80
2021/12/31 12:20:01;;;;;;;0.20;0.10;;;15.70;99.90;;;;;;5012350;28;20029;-79
2021/12/31 12:22:32;;;;;;;0.52;0.52;;;15.80;99.90;;;;;;5012198;28;20079;-85
2021/12/31 12:25:10;;;;;;;0.20;0.05;;;15.90;99.90;;;;;;5012420;28;20487;-85
2021/12/31 12:27:36;;;;;;;0.08;0.08;;;15.90;99.90;;;;;;5012322;28;20065;-85
2021/12/31 12:30:07;;;;;;;0.28;0.22;;;16.00;99.90;;;;;;5012326;28;20042;-79
2021/12/31 12:35:17;;;;;;;0.00;0.00;;;16.20;99.90;;;;;;5005673;28;20045;-86
2021/12/31 12:37:44;;;;;;;0.08;0.08;;;16.20;99.90;;;;;;4991388;28;20027;-85
2021/12/31 12:40:10;;;;;;;0.38;0.22;;;16.20;99.90;;;;;;4992681;28;20064;-86
2021/12/31 12:42:43;;;;;;;0.95;0.22;;;16.20;99.90;;;;;;4992679;28;20050;-75
2021/12/31 12:45:09;;;;;;;0.63;0.32;;;16.30;99.90;;;;;;4992631;28;20023;-76
2021/12/31 12:47:37;;;;;;;0.05;0.05;;;16.40;99.90;;;;;;4999118;28;20072;-81
2021/12/31 12:50:09;;;;;;;0.47;0.47;;;16.40;99.90;;;;;;5015248;28;20057;-81
2021/12/31 12:52:35;;;;;;;0.10;0.10;;;16.50;99.90;;;;;;5015392;28;20053;-83
2021/12/31 12:55:28;;;;;;;0.00;0.00;;;16.40;99.90;;;;;;5015949;28;20026;-83
2021/12/31 12:58:01;;;;;;;0.10;0.10;;;16.50;99.90;;;;;;5014616;28;20034;-74
2021/12/31 13:00:35;;;;;;;0.00;0.00;;;16.70;99.90;;;;;;5015026;28;20022;-82
2021/12/31 13:03:08;;;;;;;0.28;0.28;;;16.80;99.90;;;;;;5015853;28;20446;-81
2021/12/31 13:05:34;;;;;;;0.30;0.30;;;17.00;99.90;;;;;;5015455;28;20057;-74